sensor_id;sensor_type;location;lat;lon;timestamp;temperature;humidity
65046;DHT22;54657;52.022;5.534;2023-04-29T00:00:35;11.20;90.50
65046;DHT22;54657;52.022;5.534;2023-04-29T00:03:01;11.10;90.60
65046;DHT22;54657;52.022;5.534;2023-04-29T00:05:26;11.10;90.60
65046;DHT22;54657;52.022;5.534;2023-04-29T00:07:52;11.10;90.70
65046;DHT22;54657;52.022;5.534;2023-04-29T00:10:18;11.10;90.70
65046;DHT22;54657;52.022;5.534;2023-04-29T00:12:43;11.10;90.70
65046;DHT22;54657;52.022;5.534;2023-04-29T00:15:09;11.10;90.80
65046;DHT22;54657;52.022;5.534;2023-04-29T00:17:35;11.10;90.70
65046;DHT22;54657;52.022;5.534;2023-04-29T00:20:01;11.10;90.80
65046;DHT22;54657;52.022;5.534;2023-04-29T00:22:27;11.10;90.80
65046;DHT22;54657;52.022;5.534;2023-04-29T00:24:53;11.10;91.00
65046;DHT22;54657;52.022;5.534;2023-04-29T00:27:18;11.10;91.10
65046;DHT22;54657;52.022;5.534;2023-04-29T00:29:44;11.10;91.40
65046;DHT22;54657;52.022;5.534;2023-04-29T00:32:10;11.10;91.40
65046;DHT22;54657;52.022;5.534;2023-04-29T00:34:35;11.10;91.10
65046;DHT22;54657;52.022;5.534;2023-04-29T00:37:01;11.10;91.00
65046;DHT22;54657;52.022;5.534;2023-04-29T00:39:26;11.10;91.10
65046;DHT22;54657;52.022;5.534;2023-04-29T00:41:52;11.10;91.10
65046;DHT22;54657;52.022;5.534;2023-04-29T00:44:18;11.10;91.00
65046;DHT22;54657;52.022;5.534;2023-04-29T00:46:43;11.10;91.00
65046;DHT22;54657;52.022;5.534;2023-04-29T00:49:10;11.10;91.00
65046;DHT22;54657;52.022;5.534;2023-04-29T00:51:37;11.10;91.00
65046;DHT22;54657;52.022;5.534;2023-04-29T00:54:04;11.10;91.20
65046;DHT22;54657;52.022;5.534;2023-04-29T00:56:33;11.10;91.20
65046;DHT22;54657;52.022;5.534;2023-04-29T00:59:01;11.10;91.30
65046;DHT22;54657;52.022;5.534;2023-04-29T01:01:28;11.10;91.20
65046;DHT22;54657;52.022;5.534;2023-04-29T01:03:55;11.10;91.20
65046;DHT22;54657;52.022;5.534;2023-04-29T01:09:28;11.10;91.10
65046;DHT22;54657;52.022;5.534;2023-04-29T01:17:27;11.00;91.80
65046;DHT22;54657;52.022;5.534;2023-04-29T01:19:56;11.00;91.70
65046;DHT22;54657;52.022;5.534;2023-04-29T01:22:23;10.90;91.40
65046;DHT22;54657;52.022;5.534;2023-04-29T01:24:48;10.90;91.60
65046;DHT22;54657;52.022;5.534;2023-04-29T01:27:33;11.00;91.50
65046;DHT22;54657;52.022;5.534;2023-04-29T01:32:52;10.90;91.70
65046;DHT22;54657;52.022;5.534;2023-04-29T01:43:35;11.00;91.90
65046;DHT22;54657;52.022;5.534;2023-04-29T01:46:04;10.90;92.00
65046;DHT22;54657;52.022;5.534;2023-04-29T01:48:31;10.90;91.50
65046;DHT22;54657;52.022;5.534;2023-04-29T01:50:57;10.90;91.50
65046;DHT22;54657;52.022;5.534;2023-04-29T01:53:22;10.90;91.60
65046;DHT22;54657;52.022;5.534;2023-04-29T01:55:48;10.90;91.60
65046;DHT22;54657;52.022;5.534;2023-04-29T01:58:13;10.90;91.60
65046;DHT22;54657;52.022;5.534;2023-04-29T02:00:39;10.90;91.80
65046;DHT22;54657;52.022;5.534;2023-04-29T02:03:05;10.90;91.60
65046;DHT22;54657;52.022;5.534;2023-04-29T02:05:30;10.90;91.90
65046;DHT22;54657;52.022;5.534;2023-04-29T02:07:58;10.90;91.60
65046;DHT22;54657;52.022;5.534;2023-04-29T02:10:25;10.90;91.60
65046;DHT22;54657;52.022;5.534;2023-04-29T02:12:50;11.00;91.60
65046;DHT22;54657;52.022;5.534;2023-04-29T02:15:16;11.00;91.50
65046;DHT22;54657;52.022;5.534;2023-04-29T02:17:42;10.90;91.60
65046;DHT22;54657;52.022;5.534;2023-04-29T02:20:08;10.90;91.50
65046;DHT22;54657;52.022;5.534;2023-04-29T02:22:34;10.90;91.60
65046;DHT22;54657;52.022;5.534;2023-04-29T02:25:00;10.90;91.60
65046;DHT22;54657;52.022;5.534;2023-04-29T02:27:25;11.00;91.50
65046;DHT22;54657;52.022;5.534;2023-04-29T02:29:51;11.00;91.60
65046;DHT22;54657;52.022;5.534;2023-04-29T02:32:17;10.90;91.50
65046;DHT22;54657;52.022;5.534;2023-04-29T02:34:45;10.90;91.40
65046;DHT22;54657;52.022;5.534;2023-04-29T02:37:10;10.90;91.70
65046;DHT22;54657;52.022;5.534;2023-04-29T02:39:36;10.90;91.60
65046;DHT22;54657;52.022;5.534;2023-04-29T02:42:01;10.90;91.40
65046;DHT22;54657;52.022;5.534;2023-04-29T02:44:27;11.00;91.40
65046;DHT22;54657;52.022;5.534;2023-04-29T02:46:53;11.00;91.40
65046;DHT22;54657;52.022;5.534;2023-04-29T02:49:19;11.00;91.30
65046;DHT22;54657;52.022;5.534;2023-04-29T02:51:44;11.00;91.30
65046;DHT22;54657;52.022;5.534;2023-04-29T02:54:10;11.00;91.50
65046;DHT22;54657;52.022;5.534;2023-04-29T02:56:36;11.10;91.30
65046;DHT22;54657;52.022;5.534;2023-04-29T02:59:02;11.10;91.20
65046;DHT22;54657;52.022;5.534;2023-04-29T03:01:27;11.10;91.40
65046;DHT22;54657;52.022;5.534;2023-04-29T03:03:53;11.10;91.30
65046;DHT22;54657;52.022;5.534;2023-04-29T03:06:19;11.10;91.20
65046;DHT22;54657;52.022;5.534;2023-04-29T03:08:45;11.10;91.30
65046;DHT22;54657;52.022;5.534;2023-04-29T03:11:10;11.10;91.30
65046;DHT22;54657;52.022;5.534;2023-04-29T03:13:36;11.10;91.20
65046;DHT22;54657;52.022;5.534;2023-04-29T03:16:02;11.20;91.10
65046;DHT22;54657;52.022;5.534;2023-04-29T03:18:27;11.20;91.00
65046;DHT22;54657;52.022;5.534;2023-04-29T03:20:53;11.30;90.90
65046;DHT22;54657;52.022;5.534;2023-04-29T03:23:18;11.20;90.90
65046;DHT22;54657;52.022;5.534;2023-04-29T03:25:44;11.30;90.90
65046;DHT22;54657;52.022;5.534;2023-04-29T03:28:09;11.30;90.90
65046;DHT22;54657;52.022;5.534;2023-04-29T03:30:35;11.30;91.00
65046;DHT22;54657;52.022;5.534;2023-04-29T03:33:01;11.30;91.00
65046;DHT22;54657;52.022;5.534;2023-04-29T03:35:26;11.30;90.90
65046;DHT22;54657;52.022;5.534;2023-04-29T03:37:52;11.30;91.10
65046;DHT22;54657;52.022;5.534;2023-04-29T03:40:17;11.10;91.10
65046;DHT22;54657;52.022;5.534;2023-04-29T03:42:43;11.10;91.10
65046;DHT22;54657;52.022;5.534;2023-04-29T03:45:09;11.00;91.30
65046;DHT22;54657;52.022;5.534;2023-04-29T03:47:37;11.00;91.30
65046;DHT22;54657;52.022;5.534;2023-04-29T03:50:03;11.00;91.40
65046;DHT22;54657;52.022;5.534;2023-04-29T03:52:29;10.90;91.40
65046;DHT22;54657;52.022;5.534;2023-04-29T03:54:54;11.00;91.30
65046;DHT22;54657;52.022;5.534;2023-04-29T03:57:20;11.00;91.30
65046;DHT22;54657;52.022;5.534;2023-04-29T03:59:46;10.90;91.30
65046;DHT22;54657;52.022;5.534;2023-04-29T04:02:15;10.90;91.30
65046;DHT22;54657;52.022;5.534;2023-04-29T04:04:40;10.80;91.30
65046;DHT22;54657;52.022;5.534;2023-04-29T04:07:06;10.80;91.30
65046;DHT22;54657;52.022;5.534;2023-04-29T04:09:32;10.90;91.30
65046;DHT22;54657;52.022;5.534;2023-04-29T04:11:58;10.90;91.20
65046;DHT22;54657;52.022;5.534;2023-04-29T04:14:24;10.90;91.20
65046;DHT22;54657;52.022;5.534;2023-04-29T04:16:49;10.90;91.20
65046;DHT22;54657;52.022;5.534;2023-04-29T04:19:15;10.90;91.10
65046;DHT22;54657;52.022;5.534;2023-04-29T04:21:41;10.90;91.10
65046;DHT22;54657;52.022;5.534;2023-04-29T04:24:07;10.90;91.20
65046;DHT22;54657;52.022;5.534;2023-04-29T04:26:32;10.90;91.20
65046;DHT22;54657;52.022;5.534;2023-04-29T04:28:58;10.90;91.20
65046;DHT22;54657;52.022;5.534;2023-04-29T04:31:23;10.90;91.10
65046;DHT22;54657;52.022;5.534;2023-04-29T04:33:49;10.80;91.00
65046;DHT22;54657;52.022;5.534;2023-04-29T04:36:15;10.80;91.00
65046;DHT22;54657;52.022;5.534;2023-04-29T04:38:41;10.80;91.00
65046;DHT22;54657;52.022;5.534;2023-04-29T04:41:06;10.80;91.10
65046;DHT22;54657;52.022;5.534;2023-04-29T04:43:35;10.70;91.10
65046;DHT22;54657;52.022;5.534;2023-04-29T04:46:09;10.70;91.00
65046;DHT22;54657;52.022;5.534;2023-04-29T04:48:34;10.70;91.60
65046;DHT22;54657;52.022;5.534;2023-04-29T04:51:07;10.70;91.00
65046;DHT22;54657;52.022;5.534;2023-04-29T04:53:33;10.80;91.30
65046;DHT22;54657;52.022;5.534;2023-04-29T04:56:02;10.80;92.00
65046;DHT22;54657;52.022;5.534;2023-04-29T04:58:28;10.80;91.00
65046;DHT22;54657;52.022;5.534;2023-04-29T05:00:55;10.90;90.70
65046;DHT22;54657;52.022;5.534;2023-04-29T05:03:20;11.00;90.70
65046;DHT22;54657;52.022;5.534;2023-04-29T05:05:55;10.90;90.60
65046;DHT22;54657;52.022;5.534;2023-04-29T05:08:21;11.00;90.80
65046;DHT22;54657;52.022;5.534;2023-04-29T05:10:46;11.00;90.50
65046;DHT22;54657;52.022;5.534;2023-04-29T05:13:12;11.00;90.50
65046;DHT22;54657;52.022;5.534;2023-04-29T05:15:37;11.00;90.30
65046;DHT22;54657;52.022;5.534;2023-04-29T05:18:03;11.10;90.40
65046;DHT22;54657;52.022;5.534;2023-04-29T05:20:28;11.10;90.40
65046;DHT22;54657;52.022;5.534;2023-04-29T05:22:54;11.10;90.40
65046;DHT22;54657;52.022;5.534;2023-04-29T05:25:19;11.20;90.30
65046;DHT22;54657;52.022;5.534;2023-04-29T05:27:45;11.10;90.20
65046;DHT22;54657;52.022;5.534;2023-04-29T05:30:11;11.10;90.30
65046;DHT22;54657;52.022;5.534;2023-04-29T05:32:36;11.10;90.40
65046;DHT22;54657;52.022;5.534;2023-04-29T05:35:02;11.10;90.20
65046;DHT22;54657;52.022;5.534;2023-04-29T05:37:28;11.20;90.40
65046;DHT22;54657;52.022;5.534;2023-04-29T05:39:56;11.20;90.40
65046;DHT22;54657;52.022;5.534;2023-04-29T05:42:21;11.20;90.30
65046;DHT22;54657;52.022;5.534;2023-04-29T05:44:48;11.10;90.40
65046;DHT22;54657;52.022;5.534;2023-04-29T05:47:13;11.20;90.40
65046;DHT22;54657;52.022;5.534;2023-04-29T05:49:39;11.20;90.50
65046;DHT22;54657;52.022;5.534;2023-04-29T05:52:05;11.20;90.50
65046;DHT22;54657;52.022;5.534;2023-04-29T05:54:31;11.20;90.40
65046;DHT22;54657;52.022;5.534;2023-04-29T05:56:58;11.20;90.70
65046;DHT22;54657;52.022;5.534;2023-04-29T05:59:29;11.30;90.40
65046;DHT22;54657;52.022;5.534;2023-04-29T06:01:56;11.20;90.30
65046;DHT22;54657;52.022;5.534;2023-04-29T06:04:22;11.20;90.50
65046;DHT22;54657;52.022;5.534;2023-04-29T06:06:48;11.30;90.50
65046;DHT22;54657;52.022;5.534;2023-04-29T06:09:14;11.30;90.40
65046;DHT22;54657;52.022;5.534;2023-04-29T06:11:40;11.30;90.30
65046;DHT22;54657;52.022;5.534;2023-04-29T06:14:05;11.30;90.30
65046;DHT22;54657;52.022;5.534;2023-04-29T06:16:31;11.20;90.50
65046;DHT22;54657;52.022;5.534;2023-04-29T06:18:57;11.30;90.50
65046;DHT22;54657;52.022;5.534;2023-04-29T06:21:23;11.30;90.60
65046;DHT22;54657;52.022;5.534;2023-04-29T06:23:48;11.40;90.40
65046;DHT22;54657;52.022;5.534;2023-04-29T06:26:14;11.40;90.40
65046;DHT22;54657;52.022;5.534;2023-04-29T06:28:39;11.40;90.30
65046;DHT22;54657;52.022;5.534;2023-04-29T06:31:05;11.40;90.30
65046;DHT22;54657;52.022;5.534;2023-04-29T06:33:31;11.50;90.40
65046;DHT22;54657;52.022;5.534;2023-04-29T06:35:58;11.60;90.30
65046;DHT22;54657;52.022;5.534;2023-04-29T06:38:24;11.60;90.20
65046;DHT22;54657;52.022;5.534;2023-04-29T06:40:49;11.60;90.40
65046;DHT22;54657;52.022;5.534;2023-04-29T06:43:15;11.60;90.20
65046;DHT22;54657;52.022;5.534;2023-04-29T06:45:40;11.60;90.20
65046;DHT22;54657;52.022;5.534;2023-04-29T06:48:06;11.70;89.70
65046;DHT22;54657;52.022;5.534;2023-04-29T06:50:32;11.60;90.10
65046;DHT22;54657;52.022;5.534;2023-04-29T06:52:58;11.60;90.10
65046;DHT22;54657;52.022;5.534;2023-04-29T06:55:23;11.70;90.00
65046;DHT22;54657;52.022;5.534;2023-04-29T06:57:49;11.70;90.00
65046;DHT22;54657;52.022;5.534;2023-04-29T07:00:14;11.80;89.60
65046;DHT22;54657;52.022;5.534;2023-04-29T07:02:40;11.90;89.40
65046;DHT22;54657;52.022;5.534;2023-04-29T07:05:06;11.90;89.20
65046;DHT22;54657;52.022;5.534;2023-04-29T07:07:32;11.90;89.20
65046;DHT22;54657;52.022;5.534;2023-04-29T07:09:57;11.90;89.20
65046;DHT22;54657;52.022;5.534;2023-04-29T07:12:23;11.90;88.80
65046;DHT22;54657;52.022;5.534;2023-04-29T07:14:48;11.90;88.80
65046;DHT22;54657;52.022;5.534;2023-04-29T07:17:14;11.90;88.60
65046;DHT22;54657;52.022;5.534;2023-04-29T07:19:40;11.90;88.40
65046;DHT22;54657;52.022;5.534;2023-04-29T07:22:05;11.90;88.30
65046;DHT22;54657;52.022;5.534;2023-04-29T07:24:31;11.90;88.60
65046;DHT22;54657;52.022;5.534;2023-04-29T07:26:56;12.00;88.60
65046;DHT22;54657;52.022;5.534;2023-04-29T07:29:22;12.00;87.90
65046;DHT22;54657;52.022;5.534;2023-04-29T07:31:47;12.00;87.80
65046;DHT22;54657;52.022;5.534;2023-04-29T07:34:13;12.00;87.50
65046;DHT22;54657;52.022;5.534;2023-04-29T07:36:38;12.00;87.70
65046;DHT22;54657;52.022;5.534;2023-04-29T07:39:04;12.00;87.50
65046;DHT22;54657;52.022;5.534;2023-04-29T07:41:29;12.00;87.50
65046;DHT22;54657;52.022;5.534;2023-04-29T07:43:55;12.10;87.50
65046;DHT22;54657;52.022;5.534;2023-04-29T07:46:21;12.10;87.50
65046;DHT22;54657;52.022;5.534;2023-04-29T07:48:47;12.20;87.00
65046;DHT22;54657;52.022;5.534;2023-04-29T07:51:13;12.30;86.60
65046;DHT22;54657;52.022;5.534;2023-04-29T07:53:39;12.40;86.60
65046;DHT22;54657;52.022;5.534;2023-04-29T07:56:06;12.40;86.30
65046;DHT22;54657;52.022;5.534;2023-04-29T07:58:32;12.50;86.30
65046;DHT22;54657;52.022;5.534;2023-04-29T08:01:07;12.80;86.10
65046;DHT22;54657;52.022;5.534;2023-04-29T08:03:33;12.90;85.30
65046;DHT22;54657;52.022;5.534;2023-04-29T08:06:02;12.90;84.70
65046;DHT22;54657;52.022;5.534;2023-04-29T08:08:29;13.10;84.70
65046;DHT22;54657;52.022;5.534;2023-04-29T08:10:55;13.20;84.30
65046;DHT22;54657;52.022;5.534;2023-04-29T08:13:21;13.20;84.20
65046;DHT22;54657;52.022;5.534;2023-04-29T08:15:46;13.20;84.10
65046;DHT22;54657;52.022;5.534;2023-04-29T08:18:12;13.20;83.60
65046;DHT22;54657;52.022;5.534;2023-04-29T08:20:37;13.10;83.90
65046;DHT22;54657;52.022;5.534;2023-04-29T08:23:03;13.10;83.80
65046;DHT22;54657;52.022;5.534;2023-04-29T08:25:28;13.00;83.80
65046;DHT22;54657;52.022;5.534;2023-04-29T08:27:54;13.00;83.90
65046;DHT22;54657;52.022;5.534;2023-04-29T08:30:20;12.90;84.40
65046;DHT22;54657;52.022;5.534;2023-04-29T08:32:46;13.00;84.30
65046;DHT22;54657;52.022;5.534;2023-04-29T08:35:11;13.00;83.90
65046;DHT22;54657;52.022;5.534;2023-04-29T08:37:37;13.00;83.30
65046;DHT22;54657;52.022;5.534;2023-04-29T08:40:03;13.10;83.80
65046;DHT22;54657;52.022;5.534;2023-04-29T08:42:34;13.10;82.90
65046;DHT22;54657;52.022;5.534;2023-04-29T08:45:01;13.20;82.30
65046;DHT22;54657;52.022;5.534;2023-04-29T08:47:29;13.30;82.00
65046;DHT22;54657;52.022;5.534;2023-04-29T08:49:55;13.20;81.70
65046;DHT22;54657;52.022;5.534;2023-04-29T08:52:21;13.20;81.90
65046;DHT22;54657;52.022;5.534;2023-04-29T08:54:47;13.30;82.30
65046;DHT22;54657;52.022;5.534;2023-04-29T08:57:12;13.30;81.50
65046;DHT22;54657;52.022;5.534;2023-04-29T08:59:39;13.50;81.70
65046;DHT22;54657;52.022;5.534;2023-04-29T09:02:09;13.50;81.50
65046;DHT22;54657;52.022;5.534;2023-04-29T09:07:14;13.50;81.30
65046;DHT22;54657;52.022;5.534;2023-04-29T09:09:41;13.40;81.30
65046;DHT22;54657;52.022;5.534;2023-04-29T09:12:07;13.40;81.40
65046;DHT22;54657;52.022;5.534;2023-04-29T09:14:32;13.40;81.40
65046;DHT22;54657;52.022;5.534;2023-04-29T09:16:59;13.40;81.40
65046;DHT22;54657;52.022;5.534;2023-04-29T09:19:32;13.40;81.30
65046;DHT22;54657;52.022;5.534;2023-04-29T09:21:58;13.50;81.00
65046;DHT22;54657;52.022;5.534;2023-04-29T09:24:25;13.60;80.80
65046;DHT22;54657;52.022;5.534;2023-04-29T09:26:52;13.70;79.70
65046;DHT22;54657;52.022;5.534;2023-04-29T09:29:17;13.70;79.70
65046;DHT22;54657;52.022;5.534;2023-04-29T09:31:44;13.70;79.10
65046;DHT22;54657;52.022;5.534;2023-04-29T09:34:10;13.70;79.20
65046;DHT22;54657;52.022;5.534;2023-04-29T09:36:51;13.70;79.00
65046;DHT22;54657;52.022;5.534;2023-04-29T09:39:23;13.80;77.20
65046;DHT22;54657;52.022;5.534;2023-04-29T09:44:26;14.00;78.40
65046;DHT22;54657;52.022;5.534;2023-04-29T09:46:59;14.10;77.60
65046;DHT22;54657;52.022;5.534;2023-04-29T09:52:00;14.20;77.50
65046;DHT22;54657;52.022;5.534;2023-04-29T09:54:32;14.20;77.10
65046;DHT22;54657;52.022;5.534;2023-04-29T09:56:59;14.20;77.40
65046;DHT22;54657;52.022;5.534;2023-04-29T09:59:26;14.10;77.20
65046;DHT22;54657;52.022;5.534;2023-04-29T10:01:54;14.10;77.70
65046;DHT22;54657;52.022;5.534;2023-04-29T10:04:22;14.20;78.30
65046;DHT22;54657;52.022;5.534;2023-04-29T10:06:50;14.40;77.50
65046;DHT22;54657;52.022;5.534;2023-04-29T10:09:16;14.50;75.80
65046;DHT22;54657;52.022;5.534;2023-04-29T10:11:47;14.60;76.40
65046;DHT22;54657;52.022;5.534;2023-04-29T10:14:21;14.70;76.00
65046;DHT22;54657;52.022;5.534;2023-04-29T10:16:47;14.60;73.40
65046;DHT22;54657;52.022;5.534;2023-04-29T10:19:44;14.70;76.30
65046;DHT22;54657;52.022;5.534;2023-04-29T10:22:16;14.70;73.80
65046;DHT22;54657;52.022;5.534;2023-04-29T10:24:47;14.60;74.60
65046;DHT22;54657;52.022;5.534;2023-04-29T10:27:14;14.50;76.00
65046;DHT22;54657;52.022;5.534;2023-04-29T10:29:42;14.50;76.50
65046;DHT22;54657;52.022;5.534;2023-04-29T10:32:08;14.50;76.20
65046;DHT22;54657;52.022;5.534;2023-04-29T10:34:36;14.50;75.90
65046;DHT22;54657;52.022;5.534;2023-04-29T10:37:04;14.50;76.40
65046;DHT22;54657;52.022;5.534;2023-04-29T10:39:41;14.60;76.00
65046;DHT22;54657;52.022;5.534;2023-04-29T10:42:29;14.60;74.20
65046;DHT22;54657;52.022;5.534;2023-04-29T10:48:12;14.60;71.60
65046;DHT22;54657;52.022;5.534;2023-04-29T10:53:17;14.80;73.00
65046;DHT22;54657;52.022;5.534;2023-04-29T10:55:47;14.80;73.40
65046;DHT22;54657;52.022;5.534;2023-04-29T10:58:40;14.90;73.60
65046;DHT22;54657;52.022;5.534;2023-04-29T11:01:06;14.90;70.90
65046;DHT22;54657;52.022;5.534;2023-04-29T11:03:55;14.80;73.70
65046;DHT22;54657;52.022;5.534;2023-04-29T11:14:24;15.00;73.40
65046;DHT22;54657;52.022;5.534;2023-04-29T11:16:52;15.20;72.10
65046;DHT22;54657;52.022;5.534;2023-04-29T11:19:18;15.30;72.80
65046;DHT22;54657;52.022;5.534;2023-04-29T11:21:45;15.40;71.80
65046;DHT22;54657;52.022;5.534;2023-04-29T11:24:11;15.40;71.80
65046;DHT22;54657;52.022;5.534;2023-04-29T11:26:40;15.60;71.90
65046;DHT22;54657;52.022;5.534;2023-04-29T11:29:09;15.80;71.90
65046;DHT22;54657;52.022;5.534;2023-04-29T11:31:35;15.90;71.60
65046;DHT22;54657;52.022;5.534;2023-04-29T11:34:03;15.80;71.50
65046;DHT22;54657;52.022;5.534;2023-04-29T11:36:31;15.90;71.30
65046;DHT22;54657;52.022;5.534;2023-04-29T11:39:02;16.00;70.40
65046;DHT22;54657;52.022;5.534;2023-04-29T11:41:28;16.20;69.90
65046;DHT22;54657;52.022;5.534;2023-04-29T11:43:55;16.30;70.70
65046;DHT22;54657;52.022;5.534;2023-04-29T11:46:24;16.30;69.90
65046;DHT22;54657;52.022;5.534;2023-04-29T11:48:50;16.00;69.90
65046;DHT22;54657;52.022;5.534;2023-04-29T11:51:17;15.90;69.50
65046;DHT22;54657;52.022;5.534;2023-04-29T11:53:46;15.80;71.00
65046;DHT22;54657;52.022;5.534;2023-04-29T11:56:12;15.90;70.60
65046;DHT22;54657;52.022;5.534;2023-04-29T11:58:38;15.90;71.30
65046;DHT22;54657;52.022;5.534;2023-04-29T12:01:04;16.00;70.40
65046;DHT22;54657;52.022;5.534;2023-04-29T12:03:31;16.20;70.50
65046;DHT22;54657;52.022;5.534;2023-04-29T12:05:57;16.30;70.30
65046;DHT22;54657;52.022;5.534;2023-04-29T12:08:26;16.40;69.70
65046;DHT22;54657;52.022;5.534;2023-04-29T12:10:54;16.40;65.90
65046;DHT22;54657;52.022;5.534;2023-04-29T12:13:22;16.40;68.20
65046;DHT22;54657;52.022;5.534;2023-04-29T12:15:49;16.40;68.80
65046;DHT22;54657;52.022;5.534;2023-04-29T12:18:17;16.40;69.20
65046;DHT22;54657;52.022;5.534;2023-04-29T12:20:43;16.50;68.40
65046;DHT22;54657;52.022;5.534;2023-04-29T12:23:21;16.30;68.80
65046;DHT22;54657;52.022;5.534;2023-04-29T12:25:58;16.30;67.80
65046;DHT22;54657;52.022;5.534;2023-04-29T12:28:25;16.40;66.70
65046;DHT22;54657;52.022;5.534;2023-04-29T12:30:52;16.60;68.60
65046;DHT22;54657;52.022;5.534;2023-04-29T12:33:28;16.70;68.50
65046;DHT22;54657;52.022;5.534;2023-04-29T12:35:55;16.80;66.50
65046;DHT22;54657;52.022;5.534;2023-04-29T12:38:22;16.80;67.40
65046;DHT22;54657;52.022;5.534;2023-04-29T12:40:48;16.60;67.00
65046;DHT22;54657;52.022;5.534;2023-04-29T12:43:15;16.40;66.70
65046;DHT22;54657;52.022;5.534;2023-04-29T12:45:41;16.20;67.40
65046;DHT22;54657;52.022;5.534;2023-04-29T12:48:07;16.20;67.30
65046;DHT22;54657;52.022;5.534;2023-04-29T12:50:35;16.30;67.30
65046;DHT22;54657;52.022;5.534;2023-04-29T12:53:02;16.40;66.80
65046;DHT22;54657;52.022;5.534;2023-04-29T12:55:28;16.50;67.80
65046;DHT22;54657;52.022;5.534;2023-04-29T12:57:54;16.80;67.70
65046;DHT22;54657;52.022;5.534;2023-04-29T13:00:19;17.00;67.20
65046;DHT22;54657;52.022;5.534;2023-04-29T13:02:46;17.00;66.50
65046;DHT22;54657;52.022;5.534;2023-04-29T13:05:12;17.00;66.50
65046;DHT22;54657;52.022;5.534;2023-04-29T13:07:38;16.90;66.50
65046;DHT22;54657;52.022;5.534;2023-04-29T13:10:04;16.70;65.80
65046;DHT22;54657;52.022;5.534;2023-04-29T13:12:33;16.60;65.90
65046;DHT22;54657;52.022;5.534;2023-04-29T13:14:59;16.70;66.30
65046;DHT22;54657;52.022;5.534;2023-04-29T13:17:24;16.80;66.10
65046;DHT22;54657;52.022;5.534;2023-04-29T13:19:50;16.90;66.00
65046;DHT22;54657;52.022;5.534;2023-04-29T13:22:16;17.00;65.50
65046;DHT22;54657;52.022;5.534;2023-04-29T13:24:42;17.00;65.80
65046;DHT22;54657;52.022;5.534;2023-04-29T13:27:07;17.20;65.20
65046;DHT22;54657;52.022;5.534;2023-04-29T13:29:33;17.30;64.70
65046;DHT22;54657;52.022;5.534;2023-04-29T13:31:59;17.40;65.60
65046;DHT22;54657;52.022;5.534;2023-04-29T13:34:27;17.50;64.90
65046;DHT22;54657;52.022;5.534;2023-04-29T13:36:52;17.70;64.50
65046;DHT22;54657;52.022;5.534;2023-04-29T13:39:18;17.60;63.10
65046;DHT22;54657;52.022;5.534;2023-04-29T13:41:45;17.40;64.50
65046;DHT22;54657;52.022;5.534;2023-04-29T13:44:11;17.30;64.30
65046;DHT22;54657;52.022;5.534;2023-04-29T13:46:36;17.20;64.40
65046;DHT22;54657;52.022;5.534;2023-04-29T13:49:02;17.20;64.10
65046;DHT22;54657;52.022;5.534;2023-04-29T13:51:28;17.20;64.90
65046;DHT22;54657;52.022;5.534;2023-04-29T13:53:54;17.30;63.90
65046;DHT22;54657;52.022;5.534;2023-04-29T13:56:19;17.40;63.70
65046;DHT22;54657;52.022;5.534;2023-04-29T13:58:45;17.40;64.20
65046;DHT22;54657;52.022;5.534;2023-04-29T14:01:11;17.60;64.00
65046;DHT22;54657;52.022;5.534;2023-04-29T14:03:37;17.70;63.40
65046;DHT22;54657;52.022;5.534;2023-04-29T14:06:03;17.70;63.00
65046;DHT22;54657;52.022;5.534;2023-04-29T14:08:28;17.70;63.10
65046;DHT22;54657;52.022;5.534;2023-04-29T14:10:54;17.70;63.30
65046;DHT22;54657;52.022;5.534;2023-04-29T14:13:20;17.60;63.90
65046;DHT22;54657;52.022;5.534;2023-04-29T14:15:45;17.60;64.00
65046;DHT22;54657;52.022;5.534;2023-04-29T14:18:11;17.40;63.30
65046;DHT22;54657;52.022;5.534;2023-04-29T14:20:37;17.30;63.40
65046;DHT22;54657;52.022;5.534;2023-04-29T14:23:03;17.30;63.60
65046;DHT22;54657;52.022;5.534;2023-04-29T14:25:29;17.20;63.60
65046;DHT22;54657;52.022;5.534;2023-04-29T14:27:57;17.30;64.00
65046;DHT22;54657;52.022;5.534;2023-04-29T14:30:23;17.40;62.40
65046;DHT22;54657;52.022;5.534;2023-04-29T14:32:49;17.30;63.60
65046;DHT22;54657;52.022;5.534;2023-04-29T14:35:14;17.30;63.50
65046;DHT22;54657;52.022;5.534;2023-04-29T14:37:40;17.30;63.70
65046;DHT22;54657;52.022;5.534;2023-04-29T14:40:06;17.30;63.60
65046;DHT22;54657;52.022;5.534;2023-04-29T14:42:33;17.20;63.70
65046;DHT22;54657;52.022;5.534;2023-04-29T14:44:59;17.20;64.10
65046;DHT22;54657;52.022;5.534;2023-04-29T14:47:24;17.20;63.80
65046;DHT22;54657;52.022;5.534;2023-04-29T14:49:50;17.30;64.20
65046;DHT22;54657;52.022;5.534;2023-04-29T14:52:16;17.20;63.80
65046;DHT22;54657;52.022;5.534;2023-04-29T14:54:50;17.20;64.30
65046;DHT22;54657;52.022;5.534;2023-04-29T14:57:24;17.20;63.40
65046;DHT22;54657;52.022;5.534;2023-04-29T14:59:55;17.20;63.10
65046;DHT22;54657;52.022;5.534;2023-04-29T15:02:30;17.10;63.50
65046;DHT22;54657;52.022;5.534;2023-04-29T15:04:56;17.10;61.40
65046;DHT22;54657;52.022;5.534;2023-04-29T15:07:21;17.00;63.70
65046;DHT22;54657;52.022;5.534;2023-04-29T15:09:47;17.00;63.70
65046;DHT22;54657;52.022;5.534;2023-04-29T15:12:12;17.00;63.70
65046;DHT22;54657;52.022;5.534;2023-04-29T15:14:43;16.90;63.90
65046;DHT22;54657;52.022;5.534;2023-04-29T15:17:38;16.90;62.60
65046;DHT22;54657;52.022;5.534;2023-04-29T15:30:05;16.80;60.80
65046;DHT22;54657;52.022;5.534;2023-04-29T15:32:43;16.70;60.60
65046;DHT22;54657;52.022;5.534;2023-04-29T15:35:09;16.60;63.40
65046;DHT22;54657;52.022;5.534;2023-04-29T15:37:37;16.60;63.50
65046;DHT22;54657;52.022;5.534;2023-04-29T15:40:02;16.60;62.90
65046;DHT22;54657;52.022;5.534;2023-04-29T15:42:29;16.60;63.00
65046;DHT22;54657;52.022;5.534;2023-04-29T15:44:54;16.60;62.90
65046;DHT22;54657;52.022;5.534;2023-04-29T15:47:20;16.60;63.00
65046;DHT22;54657;52.022;5.534;2023-04-29T15:49:47;16.50;63.10
65046;DHT22;54657;52.022;5.534;2023-04-29T15:52:13;16.50;63.20
65046;DHT22;54657;52.022;5.534;2023-04-29T15:54:39;16.40;62.90
65046;DHT22;54657;52.022;5.534;2023-04-29T15:57:05;16.50;63.20
65046;DHT22;54657;52.022;5.534;2023-04-29T15:59:30;16.40;63.10
65046;DHT22;54657;52.022;5.534;2023-04-29T16:01:56;16.40;63.10
65046;DHT22;54657;52.022;5.534;2023-04-29T16:04:22;16.40;63.20
65046;DHT22;54657;52.022;5.534;2023-04-29T16:06:48;16.40;62.90
65046;DHT22;54657;52.022;5.534;2023-04-29T16:09:13;16.30;63.20
65046;DHT22;54657;52.022;5.534;2023-04-29T16:11:39;16.30;63.00
65046;DHT22;54657;52.022;5.534;2023-04-29T16:14:05;16.30;63.10
65046;DHT22;54657;52.022;5.534;2023-04-29T16:16:31;16.30;63.30
65046;DHT22;54657;52.022;5.534;2023-04-29T16:18:56;16.30;63.30